createdAt,value
2023-12-11T00:01:13.045Z,8.87
2023-12-11T00:03:41.558Z,8.83
2023-12-11T00:06:10.212Z,8.78
2023-12-11T00:08:39.688Z,8.87
2023-12-11T00:11:10.148Z,8.86
2023-12-11T00:13:38.236Z,8.87
2023-12-11T00:16:06.985Z,8.86
2023-12-11T00:18:35.175Z,8.88
2023-12-11T00:21:03.231Z,8.84
2023-12-11T00:23:31.288Z,8.85
2023-12-11T00:26:00.707Z,8.86
2023-12-11T00:28:28.758Z,8.83
2023-12-11T00:30:56.948Z,8.86
2023-12-11T00:33:25.217Z,8.83
2023-12-11T00:35:53.322Z,8.86
2023-12-11T00:38:23.589Z,8.89
2023-12-11T00:40:51.761Z,8.87
2023-12-11T00:43:21.531Z,8.91
2023-12-11T00:45:49.642Z,8.91
2023-12-11T00:48:17.700Z,8.95
2023-12-11T00:50:45.677Z,8.98
2023-12-11T00:53:13.681Z,9.01
2023-12-11T00:55:41.784Z,9.02
2023-12-11T00:58:10.315Z,9.02
2023-12-11T01:00:39.963Z,9.05
2023-12-11T01:03:07.934Z,9.04
2023-12-11T01:05:35.918Z,9.05
2023-12-11T01:08:03.980Z,9.04
2023-12-11T01:10:31.978Z,9.07
2023-12-11T01:12:59.984Z,9.06
2023-12-11T01:15:27.901Z,9.08
2023-12-11T01:17:57.610Z,9.09
2023-12-11T01:20:28.083Z,9.08
2023-12-11T01:22:56.110Z,9.06
2023-12-11T01:25:24.046Z,9.07
2023-12-11T01:27:54.381Z,9.04
2023-12-11T01:30:22.345Z,9.02
2023-12-11T01:32:50.388Z,9.02
2023-12-11T01:35:19.900Z,9.05
2023-12-11T01:37:47.905Z,9.05
2023-12-11T01:40:15.996Z,9.04
2023-12-11T01:42:44.057Z,9.01
2023-12-11T01:45:12.458Z,9.04
2023-12-11T01:47:40.932Z,9.04
2023-12-11T01:50:09.740Z,9.06
2023-12-11T01:52:39.798Z,8.99
2023-12-11T01:55:10.849Z,9.02
2023-12-11T01:57:39.204Z,8.98
2023-12-11T02:00:08.600Z,8.99
2023-12-11T02:02:36.564Z,8.96
2023-12-11T02:05:04.765Z,8.90
2023-12-11T02:07:33.418Z,8.92
2023-12-11T02:10:05.654Z,8.92
2023-12-11T02:12:33.824Z,8.94
2023-12-11T02:15:01.866Z,8.94
2023-12-11T02:17:30.104Z,8.96
2023-12-11T02:20:00.705Z,8.94
2023-12-11T02:22:28.984Z,8.96
2023-12-11T02:25:01.599Z,8.96
2023-12-11T02:27:32.027Z,8.96
2023-12-11T02:30:00.170Z,8.99
2023-12-11T02:32:28.254Z,8.99
2023-12-11T02:34:58.437Z,9.00
2023-12-11T02:37:26.370Z,8.98
2023-12-11T02:39:54.417Z,8.98
2023-12-11T02:42:22.438Z,9.00
2023-12-11T02:44:54.113Z,8.99
2023-12-11T02:47:22.087Z,8.98
2023-12-11T02:49:52.531Z,9.00
2023-12-11T02:52:20.614Z,9.02
2023-12-11T02:54:48.633Z,9.01
2023-12-11T02:57:18.046Z,9.02
2023-12-11T02:59:46.026Z,9.03
2023-12-11T03:02:17.449Z,9.03
2023-12-11T03:04:45.446Z,9.05
2023-12-11T03:07:15.329Z,9.06
2023-12-11T03:09:43.396Z,9.05
2023-12-11T03:12:11.390Z,9.07
2023-12-11T03:14:39.384Z,9.06
2023-12-11T03:17:07.324Z,9.09
2023-12-11T03:19:36.919Z,9.08
2023-12-11T03:22:05.030Z,9.08
2023-12-11T03:24:35.198Z,9.09
2023-12-11T03:27:06.005Z,9.08
2023-12-11T03:29:33.979Z,9.11
2023-12-11T03:32:02.016Z,9.11
2023-12-11T03:34:30.331Z,9.09
2023-12-11T03:36:59.791Z,9.11
2023-12-11T03:39:27.793Z,9.09
2023-12-11T03:41:57.217Z,9.07
2023-12-11T03:44:25.320Z,9.11
2023-12-11T03:46:53.326Z,9.12
2023-12-11T03:49:23.733Z,9.09
2023-12-11T03:51:51.835Z,9.08
2023-12-11T03:54:21.380Z,9.07
2023-12-11T03:56:49.399Z,9.04
2023-12-11T03:59:17.471Z,9.05
2023-12-11T04:01:46.351Z,9.05
2023-12-11T04:04:14.637Z,9.05
2023-12-11T04:06:42.721Z,9.08
2023-12-11T04:09:10.903Z,9.06
2023-12-11T04:11:40.306Z,9.05
2023-12-11T04:14:08.293Z,9.00
2023-12-11T04:16:36.285Z,8.96
2023-12-11T04:19:04.376Z,8.89
2023-12-11T04:21:32.475Z,8.77
2023-12-11T04:24:00.561Z,8.75
2023-12-11T04:26:28.538Z,8.75
2023-12-11T04:28:57.921Z,8.72
2023-12-11T04:31:25.925Z,8.69
2023-12-11T04:33:54.209Z,8.67
2023-12-11T04:36:22.823Z,8.65
2023-12-11T04:38:50.769Z,8.59
2023-12-11T04:41:18.827Z,8.57
2023-12-11T04:43:49.120Z,8.55
2023-12-11T04:46:21.769Z,8.52
2023-12-11T04:48:51.893Z,8.51
2023-12-11T04:51:22.484Z,8.51
2023-12-11T04:53:50.622Z,8.49
2023-12-11T04:56:18.748Z,8.48
2023-12-11T04:58:46.774Z,8.39
2023-12-11T05:01:14.894Z,8.34
2023-12-11T05:03:45.492Z,8.32
2023-12-11T05:06:13.537Z,8.32
2023-12-11T05:08:41.594Z,8.20
2023-12-11T05:11:09.646Z,8.23
2023-12-11T05:13:37.638Z,8.17
2023-12-11T05:16:06.377Z,8.18
2023-12-11T05:18:38.327Z,8.20
2023-12-11T05:21:11.988Z,8.18
2023-12-11T05:23:40.033Z,8.13
2023-12-11T05:26:08.042Z,8.17
2023-12-11T05:28:36.006Z,8.14
2023-12-11T05:31:04.103Z,8.13
2023-12-11T05:33:32.243Z,8.11
2023-12-11T05:36:00.286Z,8.08
2023-12-11T05:38:31.934Z,8.10
2023-12-11T05:40:59.932Z,8.11
2023-12-11T05:43:28.063Z,8.12
2023-12-11T05:45:56.074Z,8.08
2023-12-11T05:48:24.138Z,8.12
2023-12-11T05:50:52.136Z,8.14
2023-12-11T05:53:20.140Z,8.14
2023-12-11T05:55:49.713Z,8.12
2023-12-11T05:58:17.802Z,8.08
2023-12-11T06:00:46.260Z,8.05
2023-12-11T06:03:14.575Z,8.07
2023-12-11T06:05:42.743Z,8.03
2023-12-11T06:08:10.836Z,8.02
2023-12-11T06:10:38.866Z,7.99
2023-12-11T06:13:08.433Z,7.98
2023-12-11T06:15:36.538Z,7.95
2023-12-11T06:18:09.273Z,7.94
2023-12-11T06:20:37.382Z,7.89
2023-12-11T06:23:05.448Z,7.86
2023-12-11T06:25:33.628Z,7.82
2023-12-11T06:28:02.257Z,7.80
2023-12-11T06:30:32.210Z,7.83
2023-12-11T06:33:00.386Z,7.78
2023-12-11T06:35:28.515Z,7.79
2023-12-11T06:37:56.641Z,7.77
2023-12-11T06:40:24.750Z,7.75
2023-12-11T06:42:52.817Z,7.74
2023-12-11T06:45:20.841Z,7.72
2023-12-11T06:47:50.242Z,7.71
2023-12-11T06:50:21.030Z,7.68
2023-12-11T06:52:49.113Z,7.65
2023-12-11T06:55:19.204Z,7.69
2023-12-11T06:57:49.952Z,7.69
2023-12-11T07:00:19.044Z,7.73
2023-12-11T07:02:47.163Z,7.69
2023-12-11T07:05:16.933Z,7.72
2023-12-11T07:07:45.041Z,7.72
2023-12-11T07:10:13.064Z,7.72
2023-12-11T07:12:44.085Z,7.73
2023-12-11T07:15:12.351Z,7.74
2023-12-11T07:17:41.031Z,7.73
2023-12-11T07:20:11.435Z,7.75
2023-12-11T07:22:40.996Z,7.71
2023-12-11T07:25:15.234Z,7.73
2023-12-11T07:27:43.961Z,7.69
2023-12-11T07:30:15.659Z,7.70
2023-12-11T07:32:43.894Z,7.70
2023-12-11T07:35:14.721Z,7.71
2023-12-11T07:37:46.421Z,7.72
2023-12-11T07:40:15.241Z,7.71
2023-12-11T07:42:43.223Z,7.67
2023-12-11T07:45:13.510Z,7.66
2023-12-11T07:47:44.587Z,7.69
2023-12-11T07:50:12.896Z,7.64
2023-12-11T07:52:42.270Z,7.60
2023-12-11T07:55:11.907Z,7.70
2023-12-11T07:57:41.109Z,7.73
2023-12-11T08:00:10.232Z,7.79
2023-12-11T08:02:39.402Z,7.85
2023-12-11T08:05:07.523Z,7.91
2023-12-11T08:07:35.842Z,7.95
2023-12-11T08:10:04.121Z,7.99
2023-12-11T08:12:34.354Z,8.10
2023-12-11T08:15:05.226Z,8.21
2023-12-11T08:17:33.906Z,8.26
2023-12-11T08:20:02.380Z,8.30
2023-12-11T08:22:30.578Z,8.36
2023-12-11T08:24:58.667Z,8.43
2023-12-11T08:27:29.192Z,8.59
2023-12-11T08:29:58.984Z,8.70
2023-12-11T08:32:27.083Z,8.75
2023-12-11T08:34:55.202Z,8.87
2023-12-11T08:37:23.360Z,8.93
2023-12-11T08:39:51.472Z,8.98
2023-12-11T08:42:19.551Z,9.04
2023-12-11T08:44:47.581Z,9.07
2023-12-11T08:47:16.955Z,9.15
2023-12-11T08:49:45.081Z,9.21
2023-12-11T08:52:13.189Z,9.21
2023-12-11T08:54:41.203Z,9.23
2023-12-11T08:57:09.741Z,9.35
2023-12-11T08:59:38.986Z,9.43
2023-12-11T09:02:07.419Z,9.54
2023-12-11T09:04:38.983Z,9.57
2023-12-11T09:07:08.745Z,9.60
2023-12-11T09:09:36.759Z,9.63
2023-12-11T09:12:06.073Z,9.67
2023-12-11T09:14:35.655Z,9.76
2023-12-11T09:17:03.780Z,9.78
2023-12-11T09:19:40.516Z,9.82
2023-12-11T09:22:20.428Z,9.82
2023-12-11T09:24:48.604Z,9.85
2023-12-11T09:27:19.104Z,9.87
2023-12-11T09:29:49.702Z,9.84
2023-12-11T09:32:18.555Z,9.86
2023-12-11T09:34:47.558Z,9.88
2023-12-11T09:37:17.122Z,9.92
2023-12-11T09:39:47.017Z,9.96
2023-12-11T09:42:16.781Z,9.94
2023-12-11T09:44:47.768Z,9.98
2023-12-11T09:47:18.883Z,10.05
2023-12-11T09:49:49.296Z,10.07
2023-12-11T09:52:20.415Z,10.20
2023-12-11T09:54:50.019Z,10.25
2023-12-11T09:57:18.696Z,10.33
2023-12-11T09:59:50.917Z,10.42
2023-12-11T10:02:19.798Z,10.52
2023-12-11T10:05:08.846Z,10.65
2023-12-11T10:07:38.101Z,10.76
2023-12-11T10:10:24.346Z,10.82
2023-12-11T10:12:52.426Z,10.82
2023-12-11T10:15:25.503Z,10.81
2023-12-11T10:18:07.349Z,10.93
2023-12-11T10:20:36.933Z,11.10
2023-12-11T10:23:16.671Z,11.40
2023-12-11T10:25:48.082Z,11.70
2023-12-11T10:28:19.840Z,11.79
2023-12-11T10:30:53.203Z,11.84
2023-12-11T10:33:22.235Z,11.67
2023-12-11T10:35:50.885Z,11.77
2023-12-11T10:38:23.287Z,11.73
2023-12-11T10:40:53.244Z,11.69
2023-12-11T10:43:21.554Z,11.71
2023-12-11T10:45:52.910Z,11.74
2023-12-11T10:48:22.472Z,11.70
2023-12-11T10:50:51.419Z,11.74
2023-12-11T10:53:20.225Z,11.87
2023-12-11T10:55:50.608Z,11.85
2023-12-11T10:58:20.679Z,11.84
2023-12-11T11:00:49.348Z,11.84
2023-12-11T11:03:19.232Z,11.77
2023-12-11T11:05:48.752Z,11.84
2023-12-11T11:08:28.303Z,11.76
2023-12-11T11:11:03.925Z,11.81
2023-12-11T11:13:40.120Z,11.85
2023-12-11T11:16:08.359Z,11.77
2023-12-11T11:19:07.133Z,11.84
2023-12-11T11:21:35.419Z,11.76
2023-12-11T11:24:03.802Z,11.72
2023-12-11T11:26:33.752Z,11.89
2023-12-11T11:29:06.914Z,11.92
2023-12-11T11:31:52.512Z,12.05
2023-12-11T11:34:45.945Z,12.04
2023-12-11T11:37:18.419Z,12.06
2023-12-11T11:39:59.918Z,11.94
2023-12-11T11:42:29.503Z,11.95
2023-12-11T11:45:00.111Z,12.15
2023-12-11T11:47:32.513Z,12.32
2023-12-11T11:50:06.728Z,12.80
2023-12-11T11:52:37.081Z,12.58
2023-12-11T11:55:12.913Z,12.90
2023-12-11T11:57:42.154Z,12.92
2023-12-11T12:00:12.742Z,12.98
2023-12-11T12:02:41.039Z,13.19
2023-12-11T12:05:11.570Z,13.27
2023-12-11T12:07:41.601Z,12.94
2023-12-11T12:10:14.290Z,13.26
2023-12-11T12:12:42.749Z,13.25
2023-12-11T12:15:12.756Z,13.30
2023-12-11T12:17:41.381Z,13.36
2023-12-11T12:20:14.265Z,13.47
2023-12-11T12:22:57.060Z,13.60
2023-12-11T12:25:25.334Z,13.48
2023-12-11T12:27:55.024Z,13.63
2023-12-11T12:30:24.658Z,13.75
2023-12-11T12:32:53.803Z,13.81
2023-12-11T12:35:22.918Z,14.11
2023-12-11T12:37:51.917Z,14.11
2023-12-11T12:40:20.703Z,14.16
2023-12-11T12:42:49.128Z,14.05
2023-12-11T12:45:35.930Z,14.07
2023-12-11T12:48:05.993Z,14.27
2023-12-11T12:50:34.733Z,14.21
2023-12-11T12:53:07.493Z,14.33
2023-12-11T12:55:36.535Z,14.17
2023-12-11T12:58:05.346Z,13.85
2023-12-11T13:00:36.478Z,13.85
2023-12-11T13:03:08.942Z,13.96
2023-12-11T13:05:44.368Z,13.87
2023-12-11T13:08:12.425Z,14.07
2023-12-11T13:10:40.405Z,13.85
2023-12-11T13:13:12.952Z,13.91
2023-12-11T13:15:43.631Z,13.77
2023-12-11T13:18:16.429Z,13.72
2023-12-11T13:20:44.932Z,13.64
2023-12-11T13:23:13.051Z,13.50
2023-12-11T13:25:40.908Z,13.63
2023-12-11T13:28:08.888Z,13.71
2023-12-11T13:30:37.493Z,13.47
2023-12-11T13:33:07.092Z,13.36
2023-12-11T13:35:35.160Z,13.30
2023-12-11T13:38:03.384Z,13.40
2023-12-11T13:40:31.396Z,13.21
2023-12-11T13:42:59.388Z,13.14
2023-12-11T13:45:29.864Z,13.03
2023-12-11T13:47:58.152Z,13.10
2023-12-11T13:50:28.450Z,12.78
2023-12-11T13:52:56.902Z,12.71
2023-12-11T13:55:25.348Z,12.53
2023-12-11T13:57:53.865Z,12.40
2023-12-11T14:00:21.886Z,12.31
2023-12-11T14:03:00.873Z,12.40
2023-12-11T14:05:34.836Z,12.16
2023-12-11T14:08:04.276Z,11.91
2023-12-11T14:10:36.064Z,11.83
2023-12-11T14:13:04.697Z,11.83
2023-12-11T14:15:33.654Z,11.64
2023-12-11T14:18:01.649Z,11.58
2023-12-11T14:20:31.081Z,11.62
2023-12-11T14:23:03.389Z,11.50
2023-12-11T14:25:31.714Z,11.55
2023-12-11T14:28:05.073Z,11.36
2023-12-11T14:30:36.548Z,11.33
2023-12-11T14:33:05.593Z,11.28
2023-12-11T14:35:33.981Z,11.35
2023-12-11T14:38:05.793Z,11.09
2023-12-11T14:40:34.820Z,11.06
2023-12-11T14:43:06.057Z,11.10
2023-12-11T14:45:41.533Z,11.00
2023-12-11T14:48:09.893Z,10.84
2023-12-11T14:50:37.923Z,10.93
2023-12-11T14:53:08.093Z,10.80
2023-12-11T14:55:43.647Z,10.83
2023-12-11T14:58:12.263Z,10.72
2023-12-11T15:00:40.268Z,10.70
2023-12-11T15:03:08.198Z,10.63
2023-12-11T15:05:36.369Z,10.61
2023-12-11T15:08:04.378Z,10.61
2023-12-11T15:10:37.467Z,10.60
2023-12-11T15:13:07.907Z,10.41
2023-12-11T15:15:36.663Z,10.40
2023-12-11T15:18:07.923Z,10.38
2023-12-11T15:20:40.073Z,10.37
2023-12-11T15:23:10.706Z,10.39
2023-12-11T15:25:41.377Z,10.26
2023-12-11T15:28:09.337Z,10.28
2023-12-11T15:34:23.829Z,10.17
2023-12-11T15:36:52.340Z,10.21
2023-12-11T15:39:23.636Z,10.12
2023-12-11T15:41:54.095Z,10.17
2023-12-11T15:44:22.453Z,10.16
2023-12-11T15:46:50.722Z,10.16
2023-12-11T15:49:19.415Z,10.05
2023-12-11T15:51:53.263Z,10.09
2023-12-11T15:54:21.420Z,9.98
2023-12-11T15:56:49.481Z,9.94
2023-12-11T15:59:18.732Z,9.85
2023-12-11T16:01:46.759Z,9.82
2023-12-11T16:04:14.756Z,9.69
2023-12-11T16:06:42.705Z,9.67
2023-12-11T16:09:19.075Z,9.60
2023-12-11T16:11:47.683Z,9.56
2023-12-11T16:14:19.280Z,9.62
2023-12-11T16:16:47.607Z,9.63
2023-12-11T16:19:16.859Z,9.61
2023-12-11T16:21:45.578Z,9.53
2023-12-11T16:24:14.358Z,9.59
2023-12-11T16:26:45.432Z,9.44
2023-12-11T16:29:13.462Z,9.46
2023-12-11T16:31:45.119Z,9.45
2023-12-11T16:34:13.314Z,9.46
2023-12-11T16:36:41.867Z,9.44
2023-12-11T16:39:09.873Z,9.41
2023-12-11T16:41:37.789Z,9.31
2023-12-11T16:44:06.356Z,9.32
2023-12-11T16:46:34.716Z,9.33
2023-12-11T16:49:04.801Z,9.32
2023-12-11T16:51:33.059Z,9.28
2023-12-11T16:54:01.097Z,9.34
2023-12-11T16:56:29.271Z,9.35
2023-12-11T16:58:57.222Z,9.30
2023-12-11T17:01:25.374Z,9.36
2023-12-11T17:03:53.679Z,9.35
2023-12-11T17:06:24.006Z,9.34
2023-12-11T17:08:52.165Z,9.32
2023-12-11T17:11:20.350Z,9.34
2023-12-11T17:13:49.327Z,9.35
2023-12-11T17:16:18.947Z,9.26
2023-12-11T17:18:47.080Z,9.24
2023-12-11T17:21:22.427Z,9.25
2023-12-11T17:23:58.866Z,9.23
2023-12-11T17:26:29.495Z,9.24
2023-12-11T17:28:59.846Z,9.24
2023-12-11T17:31:27.809Z,9.13
2023-12-11T17:33:55.900Z,9.20
2023-12-11T17:36:23.824Z,9.20
2023-12-11T17:38:51.841Z,9.23
2023-12-11T17:41:21.177Z,9.22
2023-12-11T17:43:49.318Z,9.13
2023-12-11T17:46:17.273Z,9.10
2023-12-11T17:48:45.717Z,9.18
2023-12-11T17:51:16.408Z,9.19
2023-12-11T17:53:44.895Z,9.17
2023-12-11T17:56:16.716Z,9.09
2023-12-11T17:58:46.280Z,9.19
2023-12-11T18:01:14.391Z,9.16
2023-12-11T18:03:42.385Z,9.22
2023-12-11T18:06:16.101Z,9.26
2023-12-11T18:08:44.585Z,9.23
2023-12-11T18:11:12.790Z,9.27
2023-12-11T18:13:41.179Z,9.33
2023-12-11T18:16:10.677Z,9.27
2023-12-11T18:18:39.887Z,9.32
2023-12-11T18:21:08.215Z,9.33
2023-12-11T18:23:38.550Z,9.29
2023-12-11T18:26:06.852Z,9.32
2023-12-11T18:28:34.815Z,9.26
2023-12-11T18:31:03.456Z,9.29
2023-12-11T18:33:33.046Z,9.32
2023-12-11T18:36:01.100Z,9.32
2023-12-11T18:38:29.364Z,9.28
2023-12-11T18:40:59.535Z,9.32
2023-12-11T18:43:28.200Z,9.32
2023-12-11T18:45:56.778Z,9.36
2023-12-11T18:48:26.766Z,9.39
2023-12-11T18:50:56.623Z,9.37
2023-12-11T18:53:27.497Z,9.36
2023-12-11T18:56:02.398Z,9.35
2023-12-11T18:58:31.203Z,9.33
2023-12-11T19:01:01.098Z,9.28
2023-12-11T19:03:29.263Z,9.27
2023-12-11T19:05:58.686Z,9.28
2023-12-11T19:08:27.793Z,9.22
2023-12-11T19:10:56.300Z,9.29
2023-12-11T19:13:24.515Z,9.22
2023-12-11T19:15:54.490Z,9.26
2023-12-11T19:18:26.084Z,9.29
2023-12-11T19:20:54.333Z,9.29
2023-12-11T19:23:26.150Z,9.28
2023-12-11T19:25:56.348Z,9.24
2023-12-11T19:28:24.943Z,9.28
2023-12-11T19:30:53.578Z,9.30
2023-12-11T19:33:22.072Z,9.31
2023-12-11T19:35:52.331Z,9.32
2023-12-11T19:38:20.820Z,9.24
2023-12-11T19:40:50.474Z,9.26
2023-12-11T19:43:19.160Z,9.36
2023-12-11T19:45:47.376Z,9.41
2023-12-11T19:48:17.016Z,9.40
2023-12-11T19:50:45.563Z,9.42
2023-12-11T19:53:13.744Z,9.41
2023-12-11T19:55:42.194Z,9.41
2023-12-11T19:58:12.133Z,9.40
2023-12-11T20:00:40.930Z,9.39
2023-12-11T20:03:10.602Z,9.40
2023-12-11T20:05:52.612Z,9.33
2023-12-11T20:08:21.287Z,9.34
2023-12-11T20:10:49.669Z,9.38
2023-12-11T20:13:21.098Z,9.38
2023-12-11T20:15:49.293Z,9.36
2023-12-11T20:18:18.178Z,9.37
2023-12-11T20:25:12.071Z,9.36
2023-12-11T20:27:40.082Z,9.38
2023-12-11T20:30:10.596Z,9.41
2023-12-11T20:32:38.584Z,9.41
2023-12-11T20:35:09.989Z,9.40
2023-12-11T20:37:38.984Z,9.51
2023-12-11T20:40:08.462Z,9.45
2023-12-11T20:42:42.482Z,9.46
2023-12-11T20:45:12.405Z,9.48
2023-12-11T20:47:40.489Z,9.41
2023-12-11T20:50:12.053Z,9.50
2023-12-11T20:52:41.533Z,9.49
2023-12-11T20:55:10.489Z,9.52
2023-12-11T20:57:38.528Z,9.51
2023-12-11T21:00:11.366Z,9.43
2023-12-11T21:02:42.492Z,9.47
2023-12-11T21:05:10.891Z,9.45
2023-12-11T21:07:42.370Z,9.54
2023-12-11T21:10:12.955Z,9.48
2023-12-11T21:12:40.897Z,9.50
2023-12-11T21:15:09.331Z,9.53
2023-12-11T21:17:41.528Z,9.54
2023-12-11T21:20:14.772Z,9.54
2023-12-11T21:22:42.885Z,9.55
2023-12-11T21:25:11.540Z,9.59
2023-12-11T21:27:39.762Z,9.52
2023-12-11T21:30:10.514Z,9.56
2023-12-11T21:32:40.441Z,9.52
2023-12-11T21:35:09.044Z,9.55
2023-12-11T21:37:38.628Z,9.57
2023-12-11T21:40:07.938Z,9.59
2023-12-11T21:42:38.800Z,9.60
2023-12-11T21:45:07.773Z,9.57
2023-12-11T21:47:36.122Z,9.55
2023-12-11T21:50:05.875Z,9.56
2023-12-11T21:52:33.966Z,9.52
2023-12-11T21:55:03.330Z,9.48
2023-12-11T21:57:31.514Z,9.52
2023-12-11T21:59:59.557Z,9.51
2023-12-11T22:02:27.706Z,9.47
2023-12-11T22:04:55.538Z,9.43
2023-12-11T22:07:23.535Z,9.42
2023-12-11T22:09:51.550Z,9.48
2023-12-11T22:12:21.234Z,9.39
2023-12-11T22:14:49.149Z,9.44
2023-12-11T22:17:17.085Z,9.44
2023-12-11T22:19:45.042Z,9.45
2023-12-11T22:22:13.185Z,9.42
2023-12-11T22:24:41.249Z,9.43
2023-12-11T22:27:09.184Z,9.41
2023-12-11T22:29:38.899Z,9.42
2023-12-11T22:32:07.841Z,9.37
2023-12-11T22:34:35.854Z,9.37
2023-12-11T22:37:04.015Z,9.35
2023-12-11T22:39:34.097Z,9.30
2023-12-11T22:42:02.130Z,9.24
2023-12-11T22:44:30.023Z,9.18
2023-12-11T22:47:01.753Z,9.15
2023-12-11T22:49:29.916Z,9.13
2023-12-11T22:51:57.898Z,9.19
2023-12-11T22:54:25.799Z,9.23
2023-12-11T22:56:53.723Z,9.25
2023-12-11T22:59:21.704Z,9.21
2023-12-11T23:01:50.825Z,9.18
2023-12-11T23:04:20.261Z,9.07
2023-12-11T23:06:50.763Z,8.91
2023-12-11T23:09:18.783Z,8.96
2023-12-11T23:11:46.645Z,9.00
2023-12-11T23:14:14.659Z,9.02
2023-12-11T23:16:42.560Z,9.03
2023-12-11T23:19:10.515Z,9.00
2023-12-11T23:21:39.954Z,9.01
2023-12-11T23:24:08.730Z,8.99
2023-12-11T23:26:36.631Z,9.02
2023-12-11T23:29:04.710Z,8.93
2023-12-11T23:31:32.731Z,8.95
2023-12-11T23:34:00.982Z,8.96
2023-12-11T23:36:28.946Z,8.98
2023-12-11T23:38:58.200Z,8.98
2023-12-11T23:41:26.073Z,8.95
2023-12-11T23:43:54.139Z,8.79
2023-12-11T23:46:22.133Z,8.73
2023-12-11T23:48:50.260Z,8.73
2023-12-11T23:51:18.286Z,8.62
2023-12-11T23:53:48.384Z,8.48
2023-12-11T23:56:17.666Z,8.49
2023-12-11T23:58:46.004Z,8.55
